sensor_id;sensor_type;location;lat;lon;timestamp;pressure;altitude;pressure_sealevel;temperature;humidity
81511;BME280;70931;48.796;8.440;2023-07-22T00:00:04;97186.06;;;12.70;82.66
81511;BME280;70931;48.796;8.440;2023-07-22T00:02:29;97185.59;;;12.67;83.36
81511;BME280;70931;48.796;8.440;2023-07-22T00:04:54;97183.94;;;12.66;83.04
81511;BME280;70931;48.796;8.440;2023-07-22T00:07:20;97184.97;;;12.65;82.95
81511;BME280;70931;48.796;8.440;2023-07-22T00:09:45;97183.13;;;12.65;83.58
81511;BME280;70931;48.796;8.440;2023-07-22T00:12:10;97170.09;;;12.47;83.14
81511;BME280;70931;48.796;8.440;2023-07-22T00:14:38;97186.91;;;12.56;83.03
81511;BME280;70931;48.796;8.440;2023-07-22T00:17:04;97173.88;;;12.53;82.74
81511;BME280;70931;48.796;8.440;2023-07-22T00:19:30;97175.25;;;12.49;83.90
81511;BME280;70931;48.796;8.440;2023-07-22T00:21:55;97179.50;;;12.43;83.87
81511;BME280;70931;48.796;8.440;2023-07-22T00:24:20;97177.56;;;12.52;83.55
81511;BME280;70931;48.796;8.440;2023-07-22T00:26:45;97182.56;;;12.55;83.23
81511;BME280;70931;48.796;8.440;2023-07-22T00:29:11;97176.38;;;12.54;83.23
81511;BME280;70931;48.796;8.440;2023-07-22T00:31:36;97188.25;;;12.52;82.98
81511;BME280;70931;48.796;8.440;2023-07-22T00:34:01;97182.91;;;12.52;83.20
81511;BME280;70931;48.796;8.440;2023-07-22T00:36:26;97177.19;;;12.55;83.18
81511;BME280;70931;48.796;8.440;2023-07-22T00:38:51;97180.91;;;12.54;82.62
81511;BME280;70931;48.796;8.440;2023-07-22T00:41:17;97181.28;;;12.51;83.28
81511;BME280;70931;48.796;8.440;2023-07-22T00:43:42;97179.03;;;12.40;83.96
81511;BME280;70931;48.796;8.440;2023-07-22T00:46:07;97170.94;;;12.48;83.31
81511;BME280;70931;48.796;8.440;2023-07-22T00:48:32;97176.34;;;12.40;83.97
81511;BME280;70931;48.796;8.440;2023-07-22T00:50:57;97180.69;;;12.41;83.67
81511;BME280;70931;48.796;8.440;2023-07-22T00:53:23;97174.81;;;12.31;84.43
81511;BME280;70931;48.796;8.440;2023-07-22T00:55:48;97182.00;;;12.45;83.73
81511;BME280;70931;48.796;8.440;2023-07-22T00:58:15;97176.06;;;12.35;83.17
81511;BME280;70931;48.796;8.440;2023-07-22T01:00:40;97179.19;;;12.24;83.84
81511;BME280;70931;48.796;8.440;2023-07-22T01:03:06;97175.44;;;12.33;84.12
81511;BME280;70931;48.796;8.440;2023-07-22T01:05:31;97148.66;;;12.04;84.48
81511;BME280;70931;48.796;8.440;2023-07-22T01:07:56;97176.81;;;12.29;84.45
81511;BME280;70931;48.796;8.440;2023-07-22T01:10:22;97175.84;;;12.07;85.73
81511;BME280;70931;48.796;8.440;2023-07-22T01:12:47;97176.38;;;12.02;85.84
81511;BME280;70931;48.796;8.440;2023-07-22T01:15:13;97165.56;;;12.19;85.18
81511;BME280;70931;48.796;8.440;2023-07-22T01:17:38;97166.72;;;12.02;86.01
81511;BME280;70931;48.796;8.440;2023-07-22T01:20:04;97167.59;;;12.17;85.40
81511;BME280;70931;48.796;8.440;2023-07-22T01:22:31;97154.59;;;12.14;84.82
81511;BME280;70931;48.796;8.440;2023-07-22T01:24:56;97153.47;;;12.08;85.21
81511;BME280;70931;48.796;8.440;2023-07-22T01:27:22;97167.03;;;12.21;84.98
81511;BME280;70931;48.796;8.440;2023-07-22T01:29:50;97165.91;;;12.16;84.87
81511;BME280;70931;48.796;8.440;2023-07-22T01:32:15;97167.19;;;12.20;84.59
81511;BME280;70931;48.796;8.440;2023-07-22T01:34:41;97156.72;;;12.33;84.64
81511;BME280;70931;48.796;8.440;2023-07-22T01:37:06;97166.31;;;12.42;84.50
81511;BME280;70931;48.796;8.440;2023-07-22T01:39:31;97160.97;;;12.42;84.27
81511;BME280;70931;48.796;8.440;2023-07-22T01:41:56;97156.34;;;12.36;84.23
81511;BME280;70931;48.796;8.440;2023-07-22T01:44:21;97156.72;;;12.33;84.28
81511;BME280;70931;48.796;8.440;2023-07-22T01:46:47;97154.41;;;12.30;84.23
81511;BME280;70931;48.796;8.440;2023-07-22T01:49:12;97142.03;;;12.29;84.15
81511;BME280;70931;48.796;8.440;2023-07-22T01:51:38;97143.72;;;12.30;83.90
81511;BME280;70931;48.796;8.440;2023-07-22T01:54:04;97148.06;;;12.31;84.05
81511;BME280;70931;48.796;8.440;2023-07-22T01:56:30;97141.41;;;12.27;84.46
81511;BME280;70931;48.796;8.440;2023-07-22T01:58:55;97149.63;;;12.25;84.45
81511;BME280;70931;48.796;8.440;2023-07-22T02:01:21;97145.81;;;12.20;84.29
81511;BME280;70931;48.796;8.440;2023-07-22T02:03:46;97140.47;;;12.20;83.57
81511;BME280;70931;48.796;8.440;2023-07-22T02:06:11;97137.06;;;12.26;83.91
81511;BME280;70931;48.796;8.440;2023-07-22T02:08:36;97144.34;;;12.32;83.61
81511;BME280;70931;48.796;8.440;2023-07-22T02:11:04;97145.19;;;12.32;83.40
81511;BME280;70931;48.796;8.440;2023-07-22T02:13:33;97141.41;;;12.27;83.68
81511;BME280;70931;48.796;8.440;2023-07-22T02:16:00;97126.34;;;12.11;84.45
81511;BME280;70931;48.796;8.440;2023-07-22T02:18:25;97147.38;;;12.14;84.04
81511;BME280;70931;48.796;8.440;2023-07-22T02:20:51;97151.09;;;12.13;84.32
81511;BME280;70931;48.796;8.440;2023-07-22T02:23:16;97151.25;;;12.12;84.65
81511;BME280;70931;48.796;8.440;2023-07-22T02:25:41;97153.56;;;12.15;84.29
81511;BME280;70931;48.796;8.440;2023-07-22T02:28:07;97147.47;;;12.21;84.31
81511;BME280;70931;48.796;8.440;2023-07-22T02:30:38;97157.81;;;12.24;84.45
81511;BME280;70931;48.796;8.440;2023-07-22T02:33:05;97157.72;;;12.17;84.70
81511;BME280;70931;48.796;8.440;2023-07-22T02:35:31;97154.88;;;12.19;84.11
81511;BME280;70931;48.796;8.440;2023-07-22T02:37:56;97157.44;;;12.27;84.33
81511;BME280;70931;48.796;8.440;2023-07-22T02:40:21;97153.31;;;12.24;83.61
81511;BME280;70931;48.796;8.440;2023-07-22T02:42:46;97148.88;;;12.31;83.61
81511;BME280;70931;48.796;8.440;2023-07-22T02:45:11;97151.63;;;12.23;83.73
81511;BME280;70931;48.796;8.440;2023-07-22T02:47:37;97148.69;;;12.18;84.23
81511;BME280;70931;48.796;8.440;2023-07-22T02:50:02;97146.00;;;12.18;83.92
81511;BME280;70931;48.796;8.440;2023-07-22T02:52:28;97149.97;;;12.08;84.69
81511;BME280;70931;48.796;8.440;2023-07-22T02:55:10;97115.72;;;11.88;84.48
81511;BME280;70931;48.796;8.440;2023-07-22T02:57:37;97140.75;;;12.10;84.26
81511;BME280;70931;48.796;8.440;2023-07-22T03:00:03;97147.28;;;12.08;83.91
81511;BME280;70931;48.796;8.440;2023-07-22T03:02:28;97118.94;;;11.84;84.11
81511;BME280;70931;48.796;8.440;2023-07-22T03:04:54;97148.91;;;11.94;84.74
81511;BME280;70931;48.796;8.440;2023-07-22T03:07:19;97137.81;;;11.82;85.31
81511;BME280;70931;48.796;8.440;2023-07-22T03:09:44;97118.19;;;11.75;84.54
81511;BME280;70931;48.796;8.440;2023-07-22T03:12:09;97142.81;;;11.85;85.10
81511;BME280;70931;48.796;8.440;2023-07-22T03:14:35;97148.19;;;12.00;84.96
81511;BME280;70931;48.796;8.440;2023-07-22T03:17:00;97147.00;;;12.02;84.77
81511;BME280;70931;48.796;8.440;2023-07-22T03:19:25;97144.31;;;12.02;84.90
81511;BME280;70931;48.796;8.440;2023-07-22T03:21:50;97143.41;;;11.95;84.67
81511;BME280;70931;48.796;8.440;2023-07-22T03:24:16;97146.34;;;12.00;84.54
81511;BME280;70931;48.796;8.440;2023-07-22T03:26:41;97145.72;;;11.98;84.85
81511;BME280;70931;48.796;8.440;2023-07-22T03:29:06;97143.41;;;11.95;84.90
81511;BME280;70931;48.796;8.440;2023-07-22T03:31:31;97144.59;;;11.93;84.33
81511;BME280;70931;48.796;8.440;2023-07-22T03:33:56;97146.72;;;11.97;84.10
81511;BME280;70931;48.796;8.440;2023-07-22T03:36:22;97150.41;;;11.96;84.24
81511;BME280;70931;48.796;8.440;2023-07-22T03:38:47;97146.81;;;12.04;84.20
81511;BME280;70931;48.796;8.440;2023-07-22T03:41:12;97138.16;;;12.02;84.92
81511;BME280;70931;48.796;8.440;2023-07-22T03:43:37;97143.41;;;11.95;84.35
81511;BME280;70931;48.796;8.440;2023-07-22T03:46:03;97151.69;;;12.00;84.49
81511;BME280;70931;48.796;8.440;2023-07-22T03:48:28;97153.72;;;11.98;84.46
81511;BME280;70931;48.796;8.440;2023-07-22T03:50:53;97145.44;;;11.93;84.11
81511;BME280;70931;48.796;8.440;2023-07-22T03:53:18;97145.72;;;11.98;84.47
81511;BME280;70931;48.796;8.440;2023-07-22T03:55:43;97144.69;;;11.99;84.35
81511;BME280;70931;48.796;8.440;2023-07-22T03:58:09;97143.41;;;11.95;84.30
81511;BME280;70931;48.796;8.440;2023-07-22T04:00:34;97141.72;;;11.94;84.81
81511;BME280;70931;48.796;8.440;2023-07-22T04:02:59;97144.97;;;12.05;84.20
81511;BME280;70931;48.796;8.440;2023-07-22T04:05:24;97148.28;;;12.07;83.71
81511;BME280;70931;48.796;8.440;2023-07-22T04:07:49;97142.66;;;12.02;84.15
81511;BME280;70931;48.796;8.440;2023-07-22T04:10:15;97134.44;;;11.88;84.13
81511;BME280;70931;48.796;8.440;2023-07-22T04:12:40;97143.66;;;12.00;84.37
81511;BME280;70931;48.796;8.440;2023-07-22T04:15:05;97150.97;;;12.07;84.73
81511;BME280;70931;48.796;8.440;2023-07-22T04:17:31;97147.28;;;12.08;84.37
81511;BME280;70931;48.796;8.440;2023-07-22T04:19:56;97139.09;;;12.09;83.94
81511;BME280;70931;48.796;8.440;2023-07-22T04:22:21;97138.59;;;12.06;83.82
81511;BME280;70931;48.796;8.440;2023-07-22T04:24:46;97136.38;;;11.94;84.19
81511;BME280;70931;48.796;8.440;2023-07-22T04:27:12;97141.00;;;12.00;84.03
81511;BME280;70931;48.796;8.440;2023-07-22T04:29:37;97139.53;;;11.98;84.22
81511;BME280;70931;48.796;8.440;2023-07-22T04:32:02;97131.50;;;11.98;84.43
81511;BME280;70931;48.796;8.440;2023-07-22T04:34:31;97144.97;;;12.05;84.18
81511;BME280;70931;48.796;8.440;2023-07-22T04:36:57;97138.59;;;12.06;83.81
81511;BME280;70931;48.796;8.440;2023-07-22T04:39:22;97142.09;;;11.91;84.20
81511;BME280;70931;48.796;8.440;2023-07-22T04:41:47;97146.06;;;11.95;84.15
81511;BME280;70931;48.796;8.440;2023-07-22T04:44:13;97142.13;;;12.06;84.35
81511;BME280;70931;48.796;8.440;2023-07-22T04:46:38;97135.56;;;12.09;84.39
81511;BME280;70931;48.796;8.440;2023-07-22T04:49:03;97149.16;;;12.22;84.25
81511;BME280;70931;48.796;8.440;2023-07-22T04:51:28;97143.81;;;12.22;83.84
81511;BME280;70931;48.796;8.440;2023-07-22T04:53:53;97141.13;;;12.22;84.26
81511;BME280;70931;48.796;8.440;2023-07-22T04:56:19;97152.00;;;12.20;84.70
81511;BME280;70931;48.796;8.440;2023-07-22T04:58:44;97153.66;;;12.21;84.44
81511;BME280;70931;48.796;8.440;2023-07-22T05:01:09;97150.06;;;12.29;84.65
81511;BME280;70931;48.796;8.440;2023-07-22T05:03:34;97158.09;;;12.29;84.07
81511;BME280;70931;48.796;8.440;2023-07-22T05:05:59;97162.06;;;12.33;84.14
81511;BME280;70931;48.796;8.440;2023-07-22T05:08:25;97161.72;;;12.36;83.99
81511;BME280;70931;48.796;8.440;2023-07-22T05:10:50;97144.72;;;12.29;83.98
81511;BME280;70931;48.796;8.440;2023-07-22T05:13:15;97152.00;;;12.35;84.16
81511;BME280;70931;48.796;8.440;2023-07-22T05:15:40;97161.34;;;12.39;84.19
81511;BME280;70931;48.796;8.440;2023-07-22T05:18:06;97154.50;;;12.22;84.48
81511;BME280;70931;48.796;8.440;2023-07-22T05:20:31;97158.00;;;12.22;85.30
81511;BME280;70931;48.796;8.440;2023-07-22T05:22:56;97157.63;;;12.40;84.76
81511;BME280;70931;48.796;8.440;2023-07-22T05:25:21;97162.97;;;12.40;84.93
81511;BME280;70931;48.796;8.440;2023-07-22T05:27:47;97172.22;;;12.52;84.81
81511;BME280;70931;48.796;8.440;2023-07-22T05:30:12;97168.44;;;12.61;84.80
81511;BME280;70931;48.796;8.440;2023-07-22T05:32:37;97158.56;;;12.62;84.54
81511;BME280;70931;48.796;8.440;2023-07-22T05:35:02;97170.38;;;12.67;83.90
81511;BME280;70931;48.796;8.440;2023-07-22T05:37:28;97169.63;;;12.73;83.55
81511;BME280;70931;48.796;8.440;2023-07-22T05:39:53;97170.91;;;12.77;84.05
81511;BME280;70931;48.796;8.440;2023-07-22T05:42:18;97169.91;;;12.78;84.48
81511;BME280;70931;48.796;8.440;2023-07-22T05:44:44;97161.25;;;12.76;84.41
81511;BME280;70931;48.796;8.440;2023-07-22T05:47:09;97175.53;;;12.83;84.85
81511;BME280;70931;48.796;8.440;2023-07-22T05:49:34;97169.06;;;12.92;84.98
81511;BME280;70931;48.796;8.440;2023-07-22T05:51:59;97173.66;;;12.98;84.50
81511;BME280;70931;48.796;8.440;2023-07-22T05:54:25;97163.25;;;12.89;85.38
81511;BME280;70931;48.796;8.440;2023-07-22T05:56:50;97172.56;;;13.07;84.34
81511;BME280;70931;48.796;8.440;2023-07-22T05:59:15;97185.47;;;13.19;83.88
81511;BME280;70931;48.796;8.440;2023-07-22T06:01:40;97189.84;;;13.41;83.67
81511;BME280;70931;48.796;8.440;2023-07-22T06:04:06;97192.81;;;13.46;83.36
81511;BME280;70931;48.796;8.440;2023-07-22T06:06:31;97187.13;;;13.55;83.07
81511;BME280;70931;48.796;8.440;2023-07-22T06:08:56;97191.81;;;13.68;82.19
81511;BME280;70931;48.796;8.440;2023-07-22T06:11:22;97182.22;;;13.59;82.93
81511;BME280;70931;48.796;8.440;2023-07-22T06:13:47;97193.59;;;13.82;82.36
81511;BME280;70931;48.796;8.440;2023-07-22T06:16:12;97196.34;;;13.89;82.37
81511;BME280;70931;48.796;8.440;2023-07-22T06:18:37;97196.75;;;14.13;81.61
81511;BME280;70931;48.796;8.440;2023-07-22T06:21:03;97195.59;;;14.22;81.69
81511;BME280;70931;48.796;8.440;2023-07-22T06:23:28;97197.31;;;14.58;80.75
81511;BME280;70931;48.796;8.440;2023-07-22T06:25:53;97185.16;;;14.62;81.00
81511;BME280;70931;48.796;8.440;2023-07-22T06:28:18;97199.41;;;14.97;74.61
81511;BME280;70931;48.796;8.440;2023-07-22T06:30:44;97199.56;;;15.29;73.93
81511;BME280;70931;48.796;8.440;2023-07-22T06:33:09;97203.00;;;15.58;74.78
81511;BME280;70931;48.796;8.440;2023-07-22T06:35:34;97190.19;;;15.73;72.83
81511;BME280;70931;48.796;8.440;2023-07-22T06:37:59;97203.06;;;15.97;71.07
81511;BME280;70931;48.796;8.440;2023-07-22T06:40:25;97206.41;;;16.12;71.81
81511;BME280;70931;48.796;8.440;2023-07-22T06:42:50;97208.88;;;16.20;68.09
81511;BME280;70931;48.796;8.440;2023-07-22T06:45:15;97210.13;;;16.37;66.25
81511;BME280;70931;48.796;8.440;2023-07-22T06:47:41;97206.81;;;16.48;64.62
81511;BME280;70931;48.796;8.440;2023-07-22T06:50:06;97203.50;;;16.46;66.49
81511;BME280;70931;48.796;8.440;2023-07-22T06:52:32;97202.25;;;16.36;67.26
81511;BME280;70931;48.796;8.440;2023-07-22T06:54:57;97205.16;;;16.47;69.01
81511;BME280;70931;48.796;8.440;2023-07-22T06:57:22;97214.28;;;16.40;68.07
81511;BME280;70931;48.796;8.440;2023-07-22T06:59:47;97209.31;;;16.43;65.95
81511;BME280;70931;48.796;8.440;2023-07-22T07:02:13;97211.78;;;16.45;67.90
81511;BME280;70931;48.796;8.440;2023-07-22T07:04:38;97211.78;;;16.51;68.12
81511;BME280;70931;48.796;8.440;2023-07-22T07:07:03;97214.88;;;16.48;64.87
81511;BME280;70931;48.796;8.440;2023-07-22T07:09:29;97216.38;;;16.58;65.22
81511;BME280;70931;48.796;8.440;2023-07-22T07:11:54;97209.50;;;16.62;68.13
81511;BME280;70931;48.796;8.440;2023-07-22T07:14:19;97205.97;;;16.68;66.66
81511;BME280;70931;48.796;8.440;2023-07-22T07:16:44;97208.88;;;16.79;64.82
81511;BME280;70931;48.796;8.440;2023-07-22T07:19:10;97205.56;;;16.84;61.35
81511;BME280;70931;48.796;8.440;2023-07-22T07:21:35;97211.31;;;17.07;61.75
81511;BME280;70931;48.796;8.440;2023-07-22T07:24:00;97203.66;;;17.04;62.63
81511;BME280;70931;48.796;8.440;2023-07-22T07:26:26;97198.25;;;17.04;62.92
81511;BME280;70931;48.796;8.440;2023-07-22T07:28:51;97206.34;;;17.04;62.45
81511;BME280;70931;48.796;8.440;2023-07-22T07:31:17;97195.31;;;17.19;59.93
81511;BME280;70931;48.796;8.440;2023-07-22T07:33:42;97213.09;;;17.26;59.55
81511;BME280;70931;48.796;8.440;2023-07-22T07:36:08;97196.69;;;17.34;62.30
81511;BME280;70931;48.796;8.440;2023-07-22T07:38:33;97212.59;;;17.42;61.09
81511;BME280;70931;48.796;8.440;2023-07-22T07:41:01;97212.38;;;17.50;59.72
81511;BME280;70931;48.796;8.440;2023-07-22T07:43:26;97213.66;;;17.86;57.96
81511;BME280;70931;48.796;8.440;2023-07-22T07:46:20;97216.78;;;17.83;58.46
81511;BME280;70931;48.796;8.440;2023-07-22T07:49:04;97220.03;;;17.98;57.93
81511;BME280;70931;48.796;8.440;2023-07-22T07:51:30;97218.91;;;18.37;54.99
81511;BME280;70931;48.796;8.440;2023-07-22T07:53:58;97237.63;;;18.63;53.89
81511;BME280;70931;48.796;8.440;2023-07-22T07:56:24;97218.09;;;18.86;52.88
81511;BME280;70931;48.796;8.440;2023-07-22T07:58:51;97214.91;;;19.13;53.55
81511;BME280;70931;48.796;8.440;2023-07-22T08:01:17;97212.56;;;19.35;53.58
81511;BME280;70931;48.796;8.440;2023-07-22T08:03:43;97210.91;;;19.70;51.97
81511;BME280;70931;48.796;8.440;2023-07-22T08:06:10;97194.38;;;19.60;51.96
81511;BME280;70931;48.796;8.440;2023-07-22T08:08:36;97210.44;;;19.73;51.42
81511;BME280;70931;48.796;8.440;2023-07-22T08:11:12;97215.31;;;19.83;51.88
81511;BME280;70931;48.796;8.440;2023-07-22T08:13:37;97212.31;;;20.32;52.57
81511;BME280;70931;48.796;8.440;2023-07-22T08:16:08;97228.84;;;20.54;49.11
81511;BME280;70931;48.796;8.440;2023-07-22T08:18:34;97223.78;;;20.92;47.61
81511;BME280;70931;48.796;8.440;2023-07-22T08:21:04;97210.50;;;21.66;47.49
81511;BME280;70931;48.796;8.440;2023-07-22T08:23:30;97196.81;;;22.00;46.72
81511;BME280;70931;48.796;8.440;2023-07-22T08:25:55;97211.34;;;22.23;45.92
81511;BME280;70931;48.796;8.440;2023-07-22T08:28:21;97225.03;;;22.61;44.88
81511;BME280;70931;48.796;8.440;2023-07-22T08:30:48;97221.13;;;22.68;45.32
81511;BME280;70931;48.796;8.440;2023-07-22T08:33:14;97219.78;;;23.04;44.28
81511;BME280;70931;48.796;8.440;2023-07-22T08:35:39;97218.03;;;23.37;43.04
81511;BME280;70931;48.796;8.440;2023-07-22T08:38:05;97222.66;;;23.53;42.45
81511;BME280;70931;48.796;8.440;2023-07-22T08:40:39;97217.38;;;23.68;43.49
81511;BME280;70931;48.796;8.440;2023-07-22T08:43:09;97207.91;;;23.97;41.34
81511;BME280;70931;48.796;8.440;2023-07-22T08:45:35;97227.72;;;24.36;39.91
81511;BME280;70931;48.796;8.440;2023-07-22T08:48:03;97212.59;;;24.23;38.91
81511;BME280;70931;48.796;8.440;2023-07-22T08:50:30;97205.19;;;23.97;38.46
81511;BME280;70931;48.796;8.440;2023-07-22T08:52:59;97202.19;;;24.47;38.42
81511;BME280;70931;48.796;8.440;2023-07-22T08:55:26;97211.72;;;25.13;37.79
81511;BME280;70931;48.796;8.440;2023-07-22T08:57:51;97212.25;;;25.15;36.85
81511;BME280;70931;48.796;8.440;2023-07-22T09:00:17;97204.03;;;25.10;36.26
81511;BME280;70931;48.796;8.440;2023-07-22T09:02:43;97211.75;;;25.23;37.67
81511;BME280;70931;48.796;8.440;2023-07-22T09:05:08;97210.28;;;25.06;36.66
81511;BME280;70931;48.796;8.440;2023-07-22T09:07:34;97213.72;;;24.91;36.09
81511;BME280;70931;48.796;8.440;2023-07-22T09:10:00;97221.44;;;24.99;37.91
81511;BME280;70931;48.796;8.440;2023-07-22T09:12:25;97205.88;;;24.09;38.44
81511;BME280;70931;48.796;8.440;2023-07-22T09:14:52;97203.03;;;23.99;40.60
81511;BME280;70931;48.796;8.440;2023-07-22T09:17:17;97205.75;;;23.99;39.89
81511;BME280;70931;48.796;8.440;2023-07-22T09:19:42;97208.59;;;23.61;40.41
81511;BME280;70931;48.796;8.440;2023-07-22T09:22:08;97216.91;;;23.33;41.55
81511;BME280;70931;48.796;8.440;2023-07-22T09:24:33;97220.84;;;22.70;45.01
81511;BME280;70931;48.796;8.440;2023-07-22T09:26:59;97218.94;;;22.54;43.91
81511;BME280;70931;48.796;8.440;2023-07-22T09:29:38;97232.78;;;22.07;46.07
81511;BME280;70931;48.796;8.440;2023-07-22T09:32:04;97231.06;;;21.90;45.05
81511;BME280;70931;48.796;8.440;2023-07-22T09:34:29;97222.69;;;22.20;45.24
81511;BME280;70931;48.796;8.440;2023-07-22T09:36:56;97222.06;;;22.46;44.06
81511;BME280;70931;48.796;8.440;2023-07-22T09:39:23;97211.84;;;22.36;44.16
81511;BME280;70931;48.796;8.440;2023-07-22T09:41:48;97223.50;;;22.98;43.17
81511;BME280;70931;48.796;8.440;2023-07-22T09:44:14;97206.31;;;23.53;44.55
81511;BME280;70931;48.796;8.440;2023-07-22T09:46:40;97196.16;;;24.13;40.50
81511;BME280;70931;48.796;8.440;2023-07-22T09:49:08;97213.78;;;23.41;40.85
81511;BME280;70931;48.796;8.440;2023-07-22T09:51:38;97215.25;;;23.32;42.11
81511;BME280;70931;48.796;8.440;2023-07-22T09:54:05;97213.59;;;22.92;43.63
81511;BME280;70931;48.796;8.440;2023-07-22T09:56:30;97210.50;;;23.39;41.39
81511;BME280;70931;48.796;8.440;2023-07-22T09:58:58;97213.03;;;23.94;41.64
81511;BME280;70931;48.796;8.440;2023-07-22T10:01:24;97212.44;;;23.87;40.74
81511;BME280;70931;48.796;8.440;2023-07-22T10:03:53;97221.75;;;23.31;42.09
81511;BME280;70931;48.796;8.440;2023-07-22T10:06:18;97208.69;;;23.71;39.81
81511;BME280;70931;48.796;8.440;2023-07-22T10:08:44;97210.00;;;23.42;41.39
81511;BME280;70931;48.796;8.440;2023-07-22T10:11:11;97206.06;;;22.99;42.04
81511;BME280;70931;48.796;8.440;2023-07-22T10:13:37;97213.53;;;23.64;40.75
81511;BME280;70931;48.796;8.440;2023-07-22T10:16:03;97201.13;;;23.73;39.90
81511;BME280;70931;48.796;8.440;2023-07-22T10:18:30;97209.81;;;24.18;39.67
81511;BME280;70931;48.796;8.440;2023-07-22T10:20:56;97206.25;;;24.45;38.42
81511;BME280;70931;48.796;8.440;2023-07-22T10:23:23;97205.22;;;24.02;41.16
81511;BME280;70931;48.796;8.440;2023-07-22T10:25:50;97203.25;;;23.71;41.17
81511;BME280;70931;48.796;8.440;2023-07-22T10:28:18;97207.16;;;23.37;40.90
81511;BME280;70931;48.796;8.440;2023-07-22T10:30:44;97201.53;;;23.87;42.04
81511;BME280;70931;48.796;8.440;2023-07-22T10:33:09;97220.31;;;23.61;41.00
81511;BME280;70931;48.796;8.440;2023-07-22T10:35:43;97203.59;;;23.14;41.10
81511;BME280;70931;48.796;8.440;2023-07-22T10:43:11;97192.63;;;25.18;38.46
81511;BME280;70931;48.796;8.440;2023-07-22T10:45:41;97194.38;;;24.92;38.98
81511;BME280;70931;48.796;8.440;2023-07-22T10:48:12;97194.75;;;25.11;38.71
81511;BME280;70931;48.796;8.440;2023-07-22T10:50:43;97197.72;;;25.52;40.00
81511;BME280;70931;48.796;8.440;2023-07-22T10:53:09;97195.75;;;26.04;37.97
81511;BME280;70931;48.796;8.440;2023-07-22T11:07:00;97165.63;;;27.50;32.02
81511;BME280;70931;48.796;8.440;2023-07-22T11:12:04;97171.78;;;26.56;32.00
81511;BME280;70931;48.796;8.440;2023-07-22T11:15:01;97177.16;;;27.27;30.56
81511;BME280;70931;48.796;8.440;2023-07-22T11:17:28;97158.09;;;27.76;29.51
81511;BME280;70931;48.796;8.440;2023-07-22T11:19:55;97155.56;;;27.90;30.97
81511;BME280;70931;48.796;8.440;2023-07-22T11:22:20;97162.03;;;28.14;30.08
81511;BME280;70931;48.796;8.440;2023-07-22T11:24:45;97146.72;;;27.49;29.93
81511;BME280;70931;48.796;8.440;2023-07-22T11:27:11;97168.31;;;27.60;28.96
81511;BME280;70931;48.796;8.440;2023-07-22T11:29:37;97155.75;;;27.54;30.59
81511;BME280;70931;48.796;8.440;2023-07-22T11:32:03;97157.22;;;27.11;32.02
81511;BME280;70931;48.796;8.440;2023-07-22T11:34:28;97150.84;;;27.95;30.35
81511;BME280;70931;48.796;8.440;2023-07-22T11:36:55;97154.38;;;28.11;29.99
81511;BME280;70931;48.796;8.440;2023-07-22T11:39:21;97162.63;;;28.06;28.61
81511;BME280;70931;48.796;8.440;2023-07-22T11:41:48;97154.31;;;28.21;31.54
81511;BME280;70931;48.796;8.440;2023-07-22T11:44:15;97163.38;;;28.16;29.22
81511;BME280;70931;48.796;8.440;2023-07-22T11:49:12;97146.66;;;28.13;28.25
81511;BME280;70931;48.796;8.440;2023-07-22T11:51:42;97159.06;;;28.44;29.30
81511;BME280;70931;48.796;8.440;2023-07-22T11:54:07;97150.13;;;28.62;29.04
81511;BME280;70931;48.796;8.440;2023-07-22T11:56:33;97134.72;;;28.71;27.39
81511;BME280;70931;48.796;8.440;2023-07-22T11:58:58;97133.25;;;28.79;27.57
81511;BME280;70931;48.796;8.440;2023-07-22T12:01:23;97112.72;;;29.29;26.84
81511;BME280;70931;48.796;8.440;2023-07-22T12:03:49;97131.59;;;29.35;28.67
81511;BME280;70931;48.796;8.440;2023-07-22T12:06:20;97142.19;;;28.66;29.94
81511;BME280;70931;48.796;8.440;2023-07-22T12:08:47;97145.16;;;27.87;32.37
81511;BME280;70931;48.796;8.440;2023-07-22T12:11:19;97143.22;;;27.18;32.31
81511;BME280;70931;48.796;8.440;2023-07-22T12:13:45;97146.78;;;27.18;33.00
81511;BME280;70931;48.796;8.440;2023-07-22T12:16:10;97133.81;;;27.49;32.01
81511;BME280;70931;48.796;8.440;2023-07-22T12:18:45;97131.28;;;28.17;31.29
81511;BME280;70931;48.796;8.440;2023-07-22T12:21:11;97128.19;;;28.62;30.74
81511;BME280;70931;48.796;8.440;2023-07-22T12:23:37;97115.59;;;29.14;29.93
81511;BME280;70931;48.796;8.440;2023-07-22T12:26:02;97122.47;;;29.40;28.79
81511;BME280;70931;48.796;8.440;2023-07-22T12:28:27;97115.97;;;29.73;28.12
81511;BME280;70931;48.796;8.440;2023-07-22T12:30:53;97121.75;;;30.33;27.15
81511;BME280;70931;48.796;8.440;2023-07-22T12:33:18;97118.47;;;29.93;27.47
81511;BME280;70931;48.796;8.440;2023-07-22T12:35:43;97129.94;;;29.58;27.75
81511;BME280;70931;48.796;8.440;2023-07-22T12:38:08;97120.28;;;29.79;26.57
81511;BME280;70931;48.796;8.440;2023-07-22T12:40:34;97126.06;;;28.15;28.98
81511;BME280;70931;48.796;8.440;2023-07-22T12:42:59;97127.94;;;28.93;29.67
81511;BME280;70931;48.796;8.440;2023-07-22T12:45:24;97110.19;;;29.32;29.33
81511;BME280;70931;48.796;8.440;2023-07-22T12:47:49;97089.19;;;27.98;29.17
81511;BME280;70931;48.796;8.440;2023-07-22T12:50:15;97096.03;;;29.20;28.55
81511;BME280;70931;48.796;8.440;2023-07-22T12:52:40;97099.75;;;29.06;28.15
81511;BME280;70931;48.796;8.440;2023-07-22T12:55:05;97106.41;;;29.00;27.21
81511;BME280;70931;48.796;8.440;2023-07-22T12:57:30;97100.44;;;29.16;28.08
81511;BME280;70931;48.796;8.440;2023-07-22T12:59:56;97100.03;;;29.33;27.26
81511;BME280;70931;48.796;8.440;2023-07-22T13:02:21;97095.50;;;30.03;27.06
81511;BME280;70931;48.796;8.440;2023-07-22T13:04:46;97102.78;;;30.50;27.13
81511;BME280;70931;48.796;8.440;2023-07-22T13:07:11;97090.16;;;30.12;25.72
81511;BME280;70931;48.796;8.440;2023-07-22T13:09:37;97087.94;;;29.05;28.03
81511;BME280;70931;48.796;8.440;2023-07-22T13:12:02;97092.56;;;28.57;28.70
81511;BME280;70931;48.796;8.440;2023-07-22T13:14:27;97099.19;;;28.17;30.01